sensor_id;sensor_type;location;lat;lon;timestamp;P1;durP1;ratioP1;P2;durP2;ratioP2
20381;SDS011;10350;51.280;12.400;2022-09-09T00:03:40;5.72;;;1.30;;
20381;SDS011;10350;51.280;12.400;2022-09-09T00:09:19;2.67;;;0.90;;
20381;SDS011;10350;51.280;12.400;2022-09-09T00:11:36;1.58;;;1.08;;
20381;SDS011;10350;51.280;12.400;2022-09-09T00:14:08;5.00;;;1.23;;
20381;SDS011;10350;51.280;12.400;2022-09-09T00:16:38;2.72;;;1.30;;
20381;SDS011;10350;51.280;12.400;2022-09-09T00:19:08;1.85;;;1.30;;
20381;SDS011;10350;51.280;12.400;2022-09-09T00:21:43;2.72;;;1.40;;
20381;SDS011;10350;51.280;12.400;2022-09-09T00:24:23;7.28;;;1.33;;
20381;SDS011;10350;51.280;12.400;2022-09-09T00:26:51;5.05;;;1.50;;
20381;SDS011;10350;51.280;12.400;2022-09-09T00:31:45;5.00;;;1.15;;
20381;SDS011;10350;51.280;12.400;2022-09-09T00:34:13;3.42;;;1.50;;
20381;SDS011;10350;51.280;12.400;2022-09-09T00:36:40;3.42;;;1.52;;
20381;SDS011;10350;51.280;12.400;2022-09-09T00:39:09;6.40;;;1.50;;
20381;SDS011;10350;51.280;12.400;2022-09-09T00:56:45;1.27;;;1.08;;
20381;SDS011;10350;51.280;12.400;2022-09-09T00:59:22;4.78;;;1.05;;
20381;SDS011;10350;51.280;12.400;2022-09-09T01:01:51;4.80;;;1.40;;
20381;SDS011;10350;51.280;12.400;2022-09-09T01:04:19;1.67;;;1.00;;
20381;SDS011;10350;51.280;12.400;2022-09-09T01:06:50;3.55;;;1.10;;
20381;SDS011;10350;51.280;12.400;2022-09-09T01:09:38;2.55;;;1.50;;
20381;SDS011;10350;51.280;12.400;2022-09-09T01:12:15;3.08;;;0.90;;
20381;SDS011;10350;51.280;12.400;2022-09-09T01:14:43;2.78;;;1.33;;
20381;SDS011;10350;51.280;12.400;2022-09-09T01:19:40;2.38;;;1.10;;
20381;SDS011;10350;51.280;12.400;2022-09-09T01:22:15;1.95;;;1.00;;
20381;SDS011;10350;51.280;12.400;2022-09-09T01:25:03;2.80;;;1.02;;
20381;SDS011;10350;51.280;12.400;2022-09-09T01:27:31;1.92;;;1.10;;
20381;SDS011;10350;51.280;12.400;2022-09-09T01:29:58;1.30;;;0.80;;
20381;SDS011;10350;51.280;12.400;2022-09-09T01:32:39;3.30;;;1.17;;
20381;SDS011;10350;51.280;12.400;2022-09-09T01:35:07;2.63;;;1.00;;
20381;SDS011;10350;51.280;12.400;2022-09-09T01:37:34;3.00;;;1.10;;
20381;SDS011;10350;51.280;12.400;2022-09-09T01:40:00;2.13;;;1.27;;
20381;SDS011;10350;51.280;12.400;2022-09-09T01:42:26;2.08;;;1.25;;
20381;SDS011;10350;51.280;12.400;2022-09-09T01:44:52;2.17;;;1.15;;
20381;SDS011;10350;51.280;12.400;2022-09-09T01:47:19;2.22;;;1.20;;
20381;SDS011;10350;51.280;12.400;2022-09-09T01:49:45;4.22;;;1.20;;
20381;SDS011;10350;51.280;12.400;2022-09-09T01:52:11;2.20;;;1.20;;
20381;SDS011;10350;51.280;12.400;2022-09-09T01:54:37;2.28;;;1.10;;
20381;SDS011;10350;51.280;12.400;2022-09-09T01:57:15;4.80;;;1.30;;
20381;SDS011;10350;51.280;12.400;2022-09-09T01:59:53;3.65;;;1.25;;
20381;SDS011;10350;51.280;12.400;2022-09-09T02:09:45;4.20;;;2.03;;
20381;SDS011;10350;51.280;12.400;2022-09-09T02:12:14;3.72;;;1.50;;
20381;SDS011;10350;51.280;12.400;2022-09-09T02:14:44;2.85;;;1.48;;
20381;SDS011;10350;51.280;12.400;2022-09-09T02:17:14;3.13;;;1.70;;
20381;SDS011;10350;51.280;12.400;2022-09-09T02:19:52;3.20;;;1.50;;
20381;SDS011;10350;51.280;12.400;2022-09-09T02:22:20;6.35;;;2.15;;
20381;SDS011;10350;51.280;12.400;2022-09-09T02:24:48;2.05;;;1.10;;
20381;SDS011;10350;51.280;12.400;2022-09-09T02:27:15;5.50;;;1.33;;
20381;SDS011;10350;51.280;12.400;2022-09-09T02:29:43;4.15;;;1.65;;
20381;SDS011;10350;51.280;12.400;2022-09-09T02:32:13;3.47;;;1.50;;
20381;SDS011;10350;51.280;12.400;2022-09-09T02:34:43;3.25;;;1.30;;
20381;SDS011;10350;51.280;12.400;2022-09-09T02:37:10;2.63;;;1.10;;
20381;SDS011;10350;51.280;12.400;2022-09-09T02:39:37;7.35;;;1.50;;
20381;SDS011;10350;51.280;12.400;2022-09-09T02:42:06;5.45;;;1.55;;
20381;SDS011;10350;51.280;12.400;2022-09-09T02:44:33;2.08;;;1.17;;
20381;SDS011;10350;51.280;12.400;2022-09-09T02:52:34;6.57;;;1.40;;
20381;SDS011;10350;51.280;12.400;2022-09-09T02:55:07;2.35;;;1.20;;
20381;SDS011;10350;51.280;12.400;2022-09-09T02:57:36;1.45;;;0.98;;
20381;SDS011;10350;51.280;12.400;2022-09-09T03:00:02;3.67;;;1.27;;
20381;SDS011;10350;51.280;12.400;2022-09-09T03:02:29;2.40;;;1.40;;
20381;SDS011;10350;51.280;12.400;2022-09-09T03:04:55;2.88;;;1.35;;
20381;SDS011;10350;51.280;12.400;2022-09-09T03:07:21;2.40;;;1.17;;
20381;SDS011;10350;51.280;12.400;2022-09-09T03:09:47;3.05;;;1.48;;
20381;SDS011;10350;51.280;12.400;2022-09-09T03:12:13;7.20;;;1.13;;
20381;SDS011;10350;51.280;12.400;2022-09-09T03:14:40;4.68;;;1.27;;
20381;SDS011;10350;51.280;12.400;2022-09-09T03:17:06;6.90;;;1.00;;
20381;SDS011;10350;51.280;12.400;2022-09-09T03:19:34;4.93;;;1.38;;
20381;SDS011;10350;51.280;12.400;2022-09-09T03:22:01;5.82;;;1.20;;
20381;SDS011;10350;51.280;12.400;2022-09-09T03:24:29;5.30;;;1.10;;
20381;SDS011;10350;51.280;12.400;2022-09-09T03:26:55;6.20;;;1.38;;
20381;SDS011;10350;51.280;12.400;2022-09-09T03:29:21;2.50;;;0.98;;
20381;SDS011;10350;51.280;12.400;2022-09-09T03:31:47;1.75;;;1.00;;
20381;SDS011;10350;51.280;12.400;2022-09-09T03:34:13;3.75;;;1.42;;
20381;SDS011;10350;51.280;12.400;2022-09-09T03:36:39;4.63;;;1.38;;
20381;SDS011;10350;51.280;12.400;2022-09-09T03:39:06;3.25;;;1.20;;
20381;SDS011;10350;51.280;12.400;2022-09-09T03:41:32;2.95;;;1.15;;
20381;SDS011;10350;51.280;12.400;2022-09-09T03:43:59;2.78;;;1.45;;
20381;SDS011;10350;51.280;12.400;2022-09-09T03:46:25;1.75;;;1.10;;
20381;SDS011;10350;51.280;12.400;2022-09-09T03:48:51;2.10;;;1.02;;
20381;SDS011;10350;51.280;12.400;2022-09-09T03:51:17;2.55;;;1.17;;
20381;SDS011;10350;51.280;12.400;2022-09-09T03:53:43;2.15;;;1.33;;
20381;SDS011;10350;51.280;12.400;2022-09-09T03:56:09;4.80;;;1.27;;
20381;SDS011;10350;51.280;12.400;2022-09-09T03:58:36;5.80;;;1.08;;
20381;SDS011;10350;51.280;12.400;2022-09-09T04:01:03;4.07;;;1.10;;
20381;SDS011;10350;51.280;12.400;2022-09-09T04:03:29;2.72;;;1.20;;
20381;SDS011;10350;51.280;12.400;2022-09-09T04:05:57;2.28;;;1.10;;
20381;SDS011;10350;51.280;12.400;2022-09-09T04:08:23;4.45;;;1.52;;
20381;SDS011;10350;51.280;12.400;2022-09-09T04:10:52;9.43;;;1.10;;
20381;SDS011;10350;51.280;12.400;2022-09-09T04:13:18;2.38;;;1.17;;
20381;SDS011;10350;51.280;12.400;2022-09-09T04:15:50;4.57;;;1.02;;
20381;SDS011;10350;51.280;12.400;2022-09-09T04:18:16;4.20;;;1.23;;
20381;SDS011;10350;51.280;12.400;2022-09-09T04:20:42;4.60;;;1.27;;
20381;SDS011;10350;51.280;12.400;2022-09-09T04:23:08;4.25;;;1.20;;
20381;SDS011;10350;51.280;12.400;2022-09-09T04:25:34;1.98;;;1.30;;
20381;SDS011;10350;51.280;12.400;2022-09-09T04:28:00;5.65;;;1.30;;
20381;SDS011;10350;51.280;12.400;2022-09-09T04:30:27;3.78;;;1.13;;
20381;SDS011;10350;51.280;12.400;2022-09-09T04:32:53;2.78;;;1.00;;
20381;SDS011;10350;51.280;12.400;2022-09-09T04:35:19;4.07;;;1.00;;
20381;SDS011;10350;51.280;12.400;2022-09-09T04:37:45;2.08;;;0.90;;
20381;SDS011;10350;51.280;12.400;2022-09-09T04:40:12;4.40;;;1.20;;
20381;SDS011;10350;51.280;12.400;2022-09-09T04:42:38;5.38;;;1.38;;
20381;SDS011;10350;51.280;12.400;2022-09-09T04:45:08;1.67;;;1.17;;
20381;SDS011;10350;51.280;12.400;2022-09-09T04:47:36;1.77;;;1.10;;
20381;SDS011;10350;51.280;12.400;2022-09-09T04:50:02;3.38;;;1.02;;
20381;SDS011;10350;51.280;12.400;2022-09-09T04:52:28;4.28;;;1.70;;
20381;SDS011;10350;51.280;12.400;2022-09-09T04:54:54;2.90;;;1.42;;
20381;SDS011;10350;51.280;12.400;2022-09-09T04:57:20;3.42;;;1.00;;
20381;SDS011;10350;51.280;12.400;2022-09-09T04:59:46;3.53;;;1.10;;
20381;SDS011;10350;51.280;12.400;2022-09-09T05:02:13;2.55;;;1.00;;
20381;SDS011;10350;51.280;12.400;2022-09-09T05:04:39;4.15;;;1.33;;
20381;SDS011;10350;51.280;12.400;2022-09-09T05:07:05;2.10;;;1.10;;
20381;SDS011;10350;51.280;12.400;2022-09-09T05:09:31;3.80;;;0.90;;
20381;SDS011;10350;51.280;12.400;2022-09-09T05:11:57;2.05;;;1.30;;
20381;SDS011;10350;51.280;12.400;2022-09-09T05:14:24;2.97;;;0.98;;
20381;SDS011;10350;51.280;12.400;2022-09-09T05:16:50;5.80;;;1.67;;
20381;SDS011;10350;51.280;12.400;2022-09-09T05:19:16;4.88;;;1.30;;
20381;SDS011;10350;51.280;12.400;2022-09-09T05:21:44;1.58;;;1.00;;
20381;SDS011;10350;51.280;12.400;2022-09-09T05:24:10;4.40;;;1.33;;
20381;SDS011;10350;51.280;12.400;2022-09-09T05:26:36;4.55;;;1.02;;
20381;SDS011;10350;51.280;12.400;2022-09-09T05:29:02;2.92;;;1.15;;
20381;SDS011;10350;51.280;12.400;2022-09-09T05:31:29;3.35;;;1.08;;
20381;SDS011;10350;51.280;12.400;2022-09-09T05:33:55;5.15;;;0.80;;
20381;SDS011;10350;51.280;12.400;2022-09-09T05:36:21;3.05;;;1.05;;
20381;SDS011;10350;51.280;12.400;2022-09-09T05:38:48;3.92;;;1.08;;
20381;SDS011;10350;51.280;12.400;2022-09-09T05:41:15;8.30;;;0.95;;
20381;SDS011;10350;51.280;12.400;2022-09-09T05:43:41;2.78;;;1.08;;
20381;SDS011;10350;51.280;12.400;2022-09-09T05:48:36;8.30;;;1.05;;
20381;SDS011;10350;51.280;12.400;2022-09-09T05:51:02;5.70;;;1.27;;
20381;SDS011;10350;51.280;12.400;2022-09-09T05:53:29;7.07;;;1.02;;
20381;SDS011;10350;51.280;12.400;2022-09-09T05:56:06;3.70;;;0.90;;
20381;SDS011;10350;51.280;12.400;2022-09-09T05:58:32;8.88;;;1.30;;
20381;SDS011;10350;51.280;12.400;2022-09-09T06:01:09;3.08;;;1.00;;
20381;SDS011;10350;51.280;12.400;2022-09-09T06:03:37;2.90;;;0.88;;
20381;SDS011;10350;51.280;12.400;2022-09-09T06:06:08;2.03;;;0.93;;
20381;SDS011;10350;51.280;12.400;2022-09-09T06:08:35;2.30;;;0.80;;
20381;SDS011;10350;51.280;12.400;2022-09-09T06:11:05;3.97;;;1.15;;
20381;SDS011;10350;51.280;12.400;2022-09-09T06:13:32;1.38;;;0.82;;
20381;SDS011;10350;51.280;12.400;2022-09-09T06:15:58;3.90;;;0.80;;
20381;SDS011;10350;51.280;12.400;2022-09-09T06:18:25;2.33;;;1.00;;
20381;SDS011;10350;51.280;12.400;2022-09-09T06:20:57;2.67;;;0.93;;
20381;SDS011;10350;51.280;12.400;2022-09-09T06:23:25;1.80;;;0.80;;
20381;SDS011;10350;51.280;12.400;2022-09-09T06:25:51;2.90;;;0.70;;
20381;SDS011;10350;51.280;12.400;2022-09-09T06:28:17;3.45;;;0.68;;
20381;SDS011;10350;51.280;12.400;2022-09-09T06:30:44;1.45;;;0.70;;
20381;SDS011;10350;51.280;12.400;2022-09-09T06:33:10;1.27;;;0.73;;
20381;SDS011;10350;51.280;12.400;2022-09-09T06:35:36;4.38;;;1.17;;
20381;SDS011;10350;51.280;12.400;2022-09-09T06:38:02;5.20;;;1.00;;
20381;SDS011;10350;51.280;12.400;2022-09-09T06:40:28;3.70;;;1.00;;
20381;SDS011;10350;51.280;12.400;2022-09-09T06:42:55;4.80;;;0.70;;
20381;SDS011;10350;51.280;12.400;2022-09-09T06:45:27;5.63;;;1.13;;
20381;SDS011;10350;51.280;12.400;2022-09-09T06:47:54;3.60;;;0.95;;
20381;SDS011;10350;51.280;12.400;2022-09-09T06:50:21;2.53;;;0.75;;
20381;SDS011;10350;51.280;12.400;2022-09-09T06:52:47;3.42;;;0.95;;
20381;SDS011;10350;51.280;12.400;2022-09-09T06:55:13;2.92;;;1.00;;
20381;SDS011;10350;51.280;12.400;2022-09-09T06:57:40;2.17;;;0.65;;
20381;SDS011;10350;51.280;12.400;2022-09-09T07:00:06;1.55;;;1.15;;
20381;SDS011;10350;51.280;12.400;2022-09-09T07:02:33;3.50;;;1.30;;
20381;SDS011;10350;51.280;12.400;2022-09-09T07:05:03;8.55;;;1.30;;
20381;SDS011;10350;51.280;12.400;2022-09-09T07:07:30;3.40;;;1.20;;
20381;SDS011;10350;51.280;12.400;2022-09-09T07:09:56;3.80;;;0.98;;
20381;SDS011;10350;51.280;12.400;2022-09-09T07:12:22;1.38;;;0.70;;
20381;SDS011;10350;51.280;12.400;2022-09-09T07:14:47;3.92;;;1.20;;
20381;SDS011;10350;51.280;12.400;2022-09-09T07:17:14;3.15;;;0.85;;
20381;SDS011;10350;51.280;12.400;2022-09-09T07:19:40;2.55;;;1.02;;
20381;SDS011;10350;51.280;12.400;2022-09-09T07:22:06;1.52;;;0.70;;
20381;SDS011;10350;51.280;12.400;2022-09-09T07:24:32;2.97;;;1.13;;
20381;SDS011;10350;51.280;12.400;2022-09-09T07:26:58;5.70;;;1.13;;
20381;SDS011;10350;51.280;12.400;2022-09-09T07:29:24;5.88;;;0.90;;
20381;SDS011;10350;51.280;12.400;2022-09-09T07:31:50;4.50;;;1.33;;
20381;SDS011;10350;51.280;12.400;2022-09-09T07:34:16;3.13;;;0.95;;
20381;SDS011;10350;51.280;12.400;2022-09-09T07:36:43;4.72;;;0.95;;
20381;SDS011;10350;51.280;12.400;2022-09-09T07:39:10;5.90;;;0.90;;
20381;SDS011;10350;51.280;12.400;2022-09-09T07:41:41;3.20;;;0.77;;
20381;SDS011;10350;51.280;12.400;2022-09-09T07:44:26;2.53;;;0.70;;
20381;SDS011;10350;51.280;12.400;2022-09-09T07:46:52;2.90;;;0.73;;
20381;SDS011;10350;51.280;12.400;2022-09-09T07:49:18;2.55;;;0.68;;
20381;SDS011;10350;51.280;12.400;2022-09-09T07:51:45;1.50;;;0.73;;
20381;SDS011;10350;51.280;12.400;2022-09-09T07:54:13;1.02;;;0.63;;
20381;SDS011;10350;51.280;12.400;2022-09-09T07:56:40;5.03;;;1.10;;
20381;SDS011;10350;51.280;12.400;2022-09-09T07:59:07;7.63;;;0.73;;
20381;SDS011;10350;51.280;12.400;2022-09-09T08:01:34;2.25;;;0.55;;
20381;SDS011;10350;51.280;12.400;2022-09-09T08:04:04;1.55;;;0.68;;
20381;SDS011;10350;51.280;12.400;2022-09-09T08:06:33;2.60;;;0.77;;
20381;SDS011;10350;51.280;12.400;2022-09-09T08:09:00;1.52;;;0.60;;
20381;SDS011;10350;51.280;12.400;2022-09-09T08:11:27;1.50;;;0.60;;
20381;SDS011;10350;51.280;12.400;2022-09-09T08:13:53;2.95;;;0.70;;
20381;SDS011;10350;51.280;12.400;2022-09-09T08:16:20;2.72;;;0.80;;
20381;SDS011;10350;51.280;12.400;2022-09-09T08:18:47;8.00;;;0.60;;
20381;SDS011;10350;51.280;12.400;2022-09-09T08:21:17;1.85;;;0.65;;
20381;SDS011;10350;51.280;12.400;2022-09-09T08:23:44;3.53;;;0.50;;
20381;SDS011;10350;51.280;12.400;2022-09-09T08:26:13;6.30;;;0.75;;
20381;SDS011;10350;51.280;12.400;2022-09-09T08:28:40;2.13;;;0.55;;
20381;SDS011;10350;51.280;12.400;2022-09-09T08:33:35;2.85;;;0.80;;
20381;SDS011;10350;51.280;12.400;2022-09-09T08:38:29;3.22;;;0.57;;
20381;SDS011;10350;51.280;12.400;2022-09-09T08:40:56;1.67;;;0.70;;
20381;SDS011;10350;51.280;12.400;2022-09-09T08:43:26;1.90;;;0.73;;
20381;SDS011;10350;51.280;12.400;2022-09-09T08:45:59;4.15;;;1.25;;
20381;SDS011;10350;51.280;12.400;2022-09-09T08:51:07;2.92;;;0.70;;
20381;SDS011;10350;51.280;12.400;2022-09-09T08:53:43;2.72;;;0.70;;
20381;SDS011;10350;51.280;12.400;2022-09-09T08:56:21;1.35;;;0.50;;
20381;SDS011;10350;51.280;12.400;2022-09-09T08:58:50;3.58;;;0.88;;
20381;SDS011;10350;51.280;12.400;2022-09-09T09:03:55;2.20;;;0.50;;
20381;SDS011;10350;51.280;12.400;2022-09-09T09:09:02;1.35;;;0.30;;
20381;SDS011;10350;51.280;12.400;2022-09-09T09:11:34;4.68;;;0.65;;
20381;SDS011;10350;51.280;12.400;2022-09-09T09:14:02;2.25;;;0.60;;
20381;SDS011;10350;51.280;12.400;2022-09-09T09:16:32;5.40;;;0.63;;
20381;SDS011;10350;51.280;12.400;2022-09-09T09:18:58;2.38;;;0.68;;
20381;SDS011;10350;51.280;12.400;2022-09-09T09:23:54;5.60;;;0.80;;
20381;SDS011;10350;51.280;12.400;2022-09-09T09:26:21;5.78;;;0.50;;
20381;SDS011;10350;51.280;12.400;2022-09-09T09:28:48;3.92;;;0.80;;
20381;SDS011;10350;51.280;12.400;2022-09-09T09:31:15;1.63;;;0.57;;
20381;SDS011;10350;51.280;12.400;2022-09-09T09:33:50;3.35;;;0.63;;
20381;SDS011;10350;51.280;12.400;2022-09-09T09:36:18;2.40;;;0.60;;
20381;SDS011;10350;51.280;12.400;2022-09-09T09:38:57;1.60;;;0.60;;
20381;SDS011;10350;51.280;12.400;2022-09-09T09:41:41;3.22;;;0.65;;
20381;SDS011;10350;51.280;12.400;2022-09-09T09:44:22;3.65;;;0.75;;
20381;SDS011;10350;51.280;12.400;2022-09-09T09:46:48;1.42;;;0.40;;
20381;SDS011;10350;51.280;12.400;2022-09-09T09:49:14;1.73;;;1.05;;
20381;SDS011;10350;51.280;12.400;2022-09-09T09:51:40;4.68;;;0.60;;
20381;SDS011;10350;51.280;12.400;2022-09-09T09:56:44;3.83;;;0.63;;
20381;SDS011;10350;51.280;12.400;2022-09-09T09:59:24;2.10;;;0.50;;
20381;SDS011;10350;51.280;12.400;2022-09-09T10:02:18;2.92;;;0.40;;
20381;SDS011;10350;51.280;12.400;2022-09-09T10:04:45;0.98;;;0.40;;
20381;SDS011;10350;51.280;12.400;2022-09-09T10:07:12;4.88;;;1.08;;
20381;SDS011;10350;51.280;12.400;2022-09-09T10:09:38;2.77;;;0.57;;
20381;SDS011;10350;51.280;12.400;2022-09-09T10:17:18;2.25;;;0.40;;
20381;SDS011;10350;51.280;12.400;2022-09-09T10:19:51;2.78;;;0.55;;
20381;SDS011;10350;51.280;12.400;2022-09-09T10:35:09;5.82;;;0.90;;
20381;SDS011;10350;51.280;12.400;2022-09-09T10:37:45;2.33;;;0.40;;
20381;SDS011;10350;51.280;12.400;2022-09-09T10:42:51;1.55;;;0.60;;
20381;SDS011;10350;51.280;12.400;2022-09-09T10:45:17;3.47;;;1.13;;
20381;SDS011;10350;51.280;12.400;2022-09-09T10:47:55;4.80;;;0.50;;
20381;SDS011;10350;51.280;12.400;2022-09-09T10:52:56;3.60;;;0.80;;
20381;SDS011;10350;51.280;12.400;2022-09-09T10:55:28;3.95;;;0.82;;
20381;SDS011;10350;51.280;12.400;2022-09-09T10:57:59;3.33;;;1.13;;
20381;SDS011;10350;51.280;12.400;2022-09-09T11:00:34;2.00;;;0.73;;
20381;SDS011;10350;51.280;12.400;2022-09-09T11:03:02;1.85;;;0.70;;
20381;SDS011;10350;51.280;12.400;2022-09-09T11:05:41;2.42;;;0.47;;
20381;SDS011;10350;51.280;12.400;2022-09-09T11:08:18;3.08;;;0.98;;
20381;SDS011;10350;51.280;12.400;2022-09-09T11:10:45;0.98;;;0.65;;
20381;SDS011;10350;51.280;12.400;2022-09-09T11:17:02;4.30;;;0.60;;
20381;SDS011;10350;51.280;12.400;2022-09-09T11:18:56;3.95;;;0.60;;
20381;SDS011;10350;51.280;12.400;2022-09-09T11:21:45;3.55;;;1.15;;
20381;SDS011;10350;51.280;12.400;2022-09-09T11:24:32;1.90;;;0.60;;
20381;SDS011;10350;51.280;12.400;2022-09-09T11:27:15;2.20;;;0.52;;
20381;SDS011;10350;51.280;12.400;2022-09-09T11:40:24;1.20;;;0.50;;
20381;SDS011;10350;51.280;12.400;2022-09-09T11:43:01;3.10;;;0.60;;
20381;SDS011;10350;51.280;12.400;2022-09-09T11:45:29;3.40;;;0.77;;
20381;SDS011;10350;51.280;12.400;2022-09-09T11:47:56;3.13;;;0.55;;
20381;SDS011;10350;51.280;12.400;2022-09-09T11:50:27;3.33;;;0.50;;
20381;SDS011;10350;51.280;12.400;2022-09-09T11:55:39;4.15;;;0.68;;
20381;SDS011;10350;51.280;12.400;2022-09-09T11:58:14;5.10;;;0.60;;
20381;SDS011;10350;51.280;12.400;2022-09-09T12:00:41;1.70;;;0.60;;
20381;SDS011;10350;51.280;12.400;2022-09-09T12:05:54;1.00;;;0.40;;
20381;SDS011;10350;51.280;12.400;2022-09-09T12:08:24;2.45;;;0.60;;
20381;SDS011;10350;51.280;12.400;2022-09-09T12:10:58;5.45;;;0.70;;
20381;SDS011;10350;51.280;12.400;2022-09-09T12:13:25;3.60;;;0.45;;
20381;SDS011;10350;51.280;12.400;2022-09-09T12:15:52;3.75;;;0.60;;
20381;SDS011;10350;51.280;12.400;2022-09-09T12:18:22;6.57;;;0.52;;
20381;SDS011;10350;51.280;12.400;2022-09-09T12:31:12;5.05;;;0.75;;
20381;SDS011;10350;51.280;12.400;2022-09-09T12:33:48;2.75;;;0.70;;
20381;SDS011;10350;51.280;12.400;2022-09-09T12:36:19;3.00;;;0.40;;
20381;SDS011;10350;51.280;12.400;2022-09-09T12:38:47;1.00;;;0.30;;
20381;SDS011;10350;51.280;12.400;2022-09-09T12:41:25;2.08;;;0.60;;
20381;SDS011;10350;51.280;12.400;2022-09-09T12:44:10;0.90;;;0.47;;
20381;SDS011;10350;51.280;12.400;2022-09-09T12:46:36;3.22;;;0.43;;
20381;SDS011;10350;51.280;12.400;2022-09-09T12:49:03;2.08;;;0.75;;
20381;SDS011;10350;51.280;12.400;2022-09-09T12:51:31;2.17;;;0.30;;
20381;SDS011;10350;51.280;12.400;2022-09-09T12:53:58;2.90;;;0.65;;
20381;SDS011;10350;51.280;12.400;2022-09-09T12:56:33;1.45;;;0.55;;
20381;SDS011;10350;51.280;12.400;2022-09-09T12:59:02;2.55;;;0.50;;
20381;SDS011;10350;51.280;12.400;2022-09-09T13:01:29;2.78;;;0.60;;
20381;SDS011;10350;51.280;12.400;2022-09-09T13:03:56;1.30;;;0.57;;
20381;SDS011;10350;51.280;12.400;2022-09-09T13:06:29;3.47;;;0.70;;
20381;SDS011;10350;51.280;12.400;2022-09-09T13:08:59;2.53;;;0.60;;
20381;SDS011;10350;51.280;12.400;2022-09-09T13:11:38;1.60;;;0.50;;
20381;SDS011;10350;51.280;12.400;2022-09-09T13:14:12;2.63;;;0.43;;
20381;SDS011;10350;51.280;12.400;2022-09-09T13:16:40;4.45;;;0.60;;
20381;SDS011;10350;51.280;12.400;2022-09-09T13:19:09;5.03;;;0.55;;
20381;SDS011;10350;51.280;12.400;2022-09-09T13:21:39;3.88;;;0.60;;
20381;SDS011;10350;51.280;12.400;2022-09-09T13:24:06;2.45;;;0.50;;
20381;SDS011;10350;51.280;12.400;2022-09-09T13:26:32;3.72;;;0.40;;
20381;SDS011;10350;51.280;12.400;2022-09-09T13:29:14;2.33;;;0.60;;
20381;SDS011;10350;51.280;12.400;2022-09-09T13:31:42;2.92;;;0.60;;
20381;SDS011;10350;51.280;12.400;2022-09-09T13:34:13;5.30;;;0.60;;
20381;SDS011;10350;51.280;12.400;2022-09-09T13:36:39;2.42;;;0.22;;
20381;SDS011;10350;51.280;12.400;2022-09-09T13:39:13;2.23;;;0.60;;
20381;SDS011;10350;51.280;12.400;2022-09-09T13:41:44;4.20;;;0.60;;
20381;SDS011;10350;51.280;12.400;2022-09-09T13:44:14;1.23;;;0.40;;
20381;SDS011;10350;51.280;12.400;2022-09-09T13:46:43;2.38;;;0.60;;
20381;SDS011;10350;51.280;12.400;2022-09-09T13:51:39;3.95;;;0.57;;
20381;SDS011;10350;51.280;12.400;2022-09-09T13:54:09;1.85;;;0.43;;
20381;SDS011;10350;51.280;12.400;2022-09-09T13:56:36;3.88;;;0.40;;
20381;SDS011;10350;51.280;12.400;2022-09-09T13:59:03;1.20;;;0.40;;
20381;SDS011;10350;51.280;12.400;2022-09-09T14:01:29;3.20;;;0.30;;
20381;SDS011;10350;51.280;12.400;2022-09-09T14:03:56;10.95;;;0.65;;
20381;SDS011;10350;51.280;12.400;2022-09-09T14:06:22;4.35;;;0.75;;
20381;SDS011;10350;51.280;12.400;2022-09-09T14:08:49;2.15;;;0.28;;
20381;SDS011;10350;51.280;12.400;2022-09-09T14:11:15;4.72;;;0.90;;
20381;SDS011;10350;51.280;12.400;2022-09-09T14:13:42;3.92;;;0.60;;
20381;SDS011;10350;51.280;12.400;2022-09-09T14:16:08;0.95;;;0.40;;
20381;SDS011;10350;51.280;12.400;2022-09-09T14:18:34;3.08;;;0.75;;
20381;SDS011;10350;51.280;12.400;2022-09-09T14:21:00;0.90;;;0.40;;
20381;SDS011;10350;51.280;12.400;2022-09-09T14:23:28;2.27;;;0.40;;
20381;SDS011;10350;51.280;12.400;2022-09-09T14:25:54;1.52;;;0.50;;
20381;SDS011;10350;51.280;12.400;2022-09-09T14:28:20;3.17;;;0.70;;
20381;SDS011;10350;51.280;12.400;2022-09-09T14:30:46;1.30;;;0.47;;
20381;SDS011;10350;51.280;12.400;2022-09-09T14:33:14;1.48;;;0.52;;
20381;SDS011;10350;51.280;12.400;2022-09-09T14:35:40;2.73;;;0.67;;
20381;SDS011;10350;51.280;12.400;2022-09-09T14:38:07;4.07;;;0.70;;
20381;SDS011;10350;51.280;12.400;2022-09-09T14:40:34;2.42;;;0.82;;
20381;SDS011;10350;51.280;12.400;2022-09-09T14:43:00;0.87;;;0.43;;
20381;SDS011;10350;51.280;12.400;2022-09-09T14:45:29;2.88;;;0.70;;
20381;SDS011;10350;51.280;12.400;2022-09-09T14:47:58;2.72;;;0.85;;
20381;SDS011;10350;51.280;12.400;2022-09-09T14:50:24;8.90;;;1.20;;
20381;SDS011;10350;51.280;12.400;2022-09-09T14:52:50;1.20;;;0.50;;
20381;SDS011;10350;51.280;12.400;2022-09-09T14:55:16;2.55;;;0.93;;
20381;SDS011;10350;51.280;12.400;2022-09-09T14:57:42;1.42;;;0.63;;
20381;SDS011;10350;51.280;12.400;2022-09-09T15:00:09;2.70;;;0.70;;
20381;SDS011;10350;51.280;12.400;2022-09-09T15:02:36;2.15;;;0.68;;
20381;SDS011;10350;51.280;12.400;2022-09-09T15:05:03;3.92;;;1.30;;
20381;SDS011;10350;51.280;12.400;2022-09-09T15:07:29;2.42;;;0.90;;
20381;SDS011;10350;51.280;12.400;2022-09-09T15:09:56;3.85;;;0.80;;
20381;SDS011;10350;51.280;12.400;2022-09-09T15:12:23;4.22;;;0.90;;
20381;SDS011;10350;51.280;12.400;2022-09-09T15:14:49;2.95;;;1.02;;
20381;SDS011;10350;51.280;12.400;2022-09-09T15:17:15;2.53;;;0.75;;
20381;SDS011;10350;51.280;12.400;2022-09-09T15:19:41;1.98;;;0.65;;
20381;SDS011;10350;51.280;12.400;2022-09-09T15:22:08;4.70;;;0.85;;
20381;SDS011;10350;51.280;12.400;2022-09-09T15:24:34;3.38;;;0.75;;
20381;SDS011;10350;51.280;12.400;2022-09-09T15:27:00;2.88;;;0.65;;
20381;SDS011;10350;51.280;12.400;2022-09-09T15:29:27;4.28;;;0.60;;
20381;SDS011;10350;51.280;12.400;2022-09-09T15:31:53;2.08;;;0.50;;
20381;SDS011;10350;51.280;12.400;2022-09-09T15:34:20;2.70;;;0.80;;
20381;SDS011;10350;51.280;12.400;2022-09-09T15:36:46;3.88;;;0.60;;
20381;SDS011;10350;51.280;12.400;2022-09-09T15:39:13;1.98;;;0.63;;
20381;SDS011;10350;51.280;12.400;2022-09-09T15:41:41;3.35;;;0.70;;
20381;SDS011;10350;51.280;12.400;2022-09-09T15:44:07;4.40;;;0.50;;
20381;SDS011;10350;51.280;12.400;2022-09-09T15:46:36;4.40;;;0.70;;
20381;SDS011;10350;51.280;12.400;2022-09-09T15:51:29;4.50;;;0.70;;
20381;SDS011;10350;51.280;12.400;2022-09-09T15:53:56;3.67;;;0.50;;
20381;SDS011;10350;51.280;12.400;2022-09-09T15:56:22;3.20;;;0.50;;
20381;SDS011;10350;51.280;12.400;2022-09-09T15:58:48;5.60;;;0.50;;
20381;SDS011;10350;51.280;12.400;2022-09-09T16:01:14;0.73;;;0.35;;
20381;SDS011;10350;51.280;12.400;2022-09-09T16:03:42;2.72;;;0.57;;
20381;SDS011;10350;51.280;12.400;2022-09-09T16:06:11;0.40;;;0.38;;
20381;SDS011;10350;51.280;12.400;2022-09-09T16:08:38;4.97;;;0.50;;
20381;SDS011;10350;51.280;12.400;2022-09-09T16:11:06;2.97;;;0.50;;
20381;SDS011;10350;51.280;12.400;2022-09-09T16:13:34;2.70;;;0.55;;
20381;SDS011;10350;51.280;12.400;2022-09-09T16:16:00;5.22;;;0.85;;
20381;SDS011;10350;51.280;12.400;2022-09-09T16:18:26;2.05;;;0.38;;
20381;SDS011;10350;51.280;12.400;2022-09-09T16:20:55;1.88;;;0.50;;
20381;SDS011;10350;51.280;12.400;2022-09-09T16:23:24;2.88;;;0.40;;
20381;SDS011;10350;51.280;12.400;2022-09-09T16:25:55;5.22;;;0.50;;
20381;SDS011;10350;51.280;12.400;2022-09-09T16:28:26;4.32;;;0.40;;
20381;SDS011;10350;51.280;12.400;2022-09-09T16:30:56;1.80;;;0.47;;
20381;SDS011;10350;51.280;12.400;2022-09-09T16:33:23;5.25;;;0.50;;
20381;SDS011;10350;51.280;12.400;2022-09-09T16:35:55;1.42;;;0.32;;
20381;SDS011;10350;51.280;12.400;2022-09-09T16:38:25;1.30;;;0.40;;